Time;durP1;ratioP1;P1;durP2;ratioP2;P2;SDS_P1;SDS_P2;PMS_P1;PMS_P2;Temp;Humidity;BMP_temperature;BMP_pressure;BME280_temperature;BME280_humidity;BME280_pressure;Samples;Min_cycle;Max_cycle;Signal;HPM_P1;HPM_P2
2023/10/22 00:00:44;;;;;;;4.30;1.80;;;13.00;99.90;;;;;;5053591;28;20183;-65
2023/10/22 00:03:10;;;;;;;3.05;1.60;;;13.00;99.90;;;;;;5053580;28;20194;-65
2023/10/22 00:05:35;;;;;;;3.58;1.75;;;13.00;99.90;;;;;;5053535;28;20190;-65
2023/10/22 00:08:01;;;;;;;2.58;1.60;;;13.00;99.90;;;;;;5053346;28;20190;-65
2023/10/22 00:10:27;;;;;;;4.93;1.80;;;12.90;99.90;;;;;;5053306;28;20172;-65
2023/10/22 00:12:53;;;;;;;6.65;1.90;;;12.90;99.90;;;;;;5053282;28;20269;-65
2023/10/22 00:15:20;;;;;;;3.60;1.65;;;13.00;99.90;;;;;;5052895;28;20651;-65
2023/10/22 00:17:46;;;;;;;3.97;2.20;;;12.90;99.90;;;;;;5053615;28;20190;-65
2023/10/22 00:20:12;;;;;;;3.80;1.80;;;12.90;99.90;;;;;;5053131;28;20234;-65
2023/10/22 00:22:38;;;;;;;4.90;1.80;;;12.90;99.90;;;;;;5053199;28;20187;-63
2023/10/22 00:25:05;;;;;;;4.15;2.00;;;12.90;99.90;;;;;;5053206;28;20175;-65
2023/10/22 00:27:32;;;;;;;5.50;1.70;;;12.90;99.90;;;;;;5053136;28;20166;-65
2023/10/22 00:29:58;;;;;;;3.70;1.80;;;12.90;99.90;;;;;;5052945;28;20585;-65
2023/10/22 00:32:24;;;;;;;4.47;1.80;;;12.90;99.90;;;;;;5053269;28;20206;-65
2023/10/22 00:34:50;;;;;;;4.40;2.03;;;12.90;99.90;;;;;;5053153;28;20694;-65
2023/10/22 00:37:15;;;;;;;4.32;1.63;;;12.80;99.90;;;;;;5053042;28;20691;-64
2023/10/22 00:39:41;;;;;;;6.25;1.63;;;12.80;99.90;;;;;;5053135;28;20527;-65
2023/10/22 00:42:07;;;;;;;3.78;1.90;;;12.90;99.90;;;;;;5052976;28;20186;-65
2023/10/22 00:44:34;;;;;;;4.75;1.83;;;12.80;99.90;;;;;;5053003;28;20183;-65
2023/10/22 00:47:00;;;;;;;5.55;1.95;;;12.90;99.90;;;;;;5053142;28;20175;-65
2023/10/22 00:49:26;;;;;;;3.67;1.67;;;12.90;99.90;;;;;;5053131;28;20178;-63
2023/10/22 00:51:52;;;;;;;3.25;1.75;;;12.90;99.90;;;;;;5052878;28;20203;-65
2023/10/22 00:54:19;;;;;;;6.10;1.98;;;12.90;99.90;;;;;;5052963;28;20178;-65
2023/10/22 00:56:46;;;;;;;5.53;1.85;;;12.90;99.90;;;;;;5052766;28;20658;-65
2023/10/22 00:59:12;;;;;;;6.18;2.15;;;12.90;99.90;;;;;;5053028;28;20268;-65
2023/10/22 01:01:38;;;;;;;5.45;1.73;;;12.90;99.90;;;;;;5053009;28;20652;-65
2023/10/22 01:04:04;;;;;;;5.70;1.70;;;12.90;99.90;;;;;;5052933;28;20644;-64
2023/10/22 01:06:30;;;;;;;5.40;1.70;;;12.90;99.90;;;;;;5052852;28;20175;-65
2023/10/22 01:08:57;;;;;;;4.55;1.80;;;12.90;99.90;;;;;;5052950;28;20171;-65
2023/10/22 01:11:23;;;;;;;8.77;2.22;;;12.80;99.90;;;;;;5052618;28;20306;-65
2023/10/22 01:13:48;;;;;;;4.00;2.10;;;12.80;99.90;;;;;;5052917;28;20267;-65
2023/10/22 01:16:14;;;;;;;4.10;1.83;;;12.90;99.90;;;;;;5052837;28;20207;-65
2023/10/22 01:18:40;;;;;;;4.75;1.90;;;12.90;99.90;;;;;;5052831;28;20683;-65
2023/10/22 01:21:05;;;;;;;4.00;1.90;;;12.90;99.90;;;;;;5052535;28;20239;-65
2023/10/22 01:23:38;;;;;;;6.15;2.15;;;12.80;99.90;;;;;;5052671;28;20175;-65
2023/10/22 01:26:06;;;;;;;3.60;1.73;;;12.90;99.90;;;;;;5052733;28;20174;-64
2023/10/22 01:28:35;;;;;;;5.25;1.88;;;12.90;99.90;;;;;;5056496;28;20271;-65
2023/10/22 01:31:01;;;;;;;6.80;2.00;;;12.90;99.90;;;;;;5056327;28;20274;-65
2023/10/22 01:33:27;;;;;;;3.80;1.70;;;12.80;99.90;;;;;;5056212;28;20663;-64
2023/10/22 01:35:52;;;;;;;4.82;2.08;;;12.80;99.90;;;;;;5056213;28;20207;-64
2023/10/22 01:38:18;;;;;;;4.75;1.95;;;12.70;99.90;;;;;;5056146;28;20563;-65
2023/10/22 01:40:44;;;;;;;5.82;2.20;;;12.70;99.90;;;;;;5056002;28;20225;-65
2023/10/22 01:43:10;;;;;;;4.30;2.22;;;12.70;99.90;;;;;;5056195;28;20164;-64
2023/10/22 01:45:35;;;;;;;3.72;2.83;;;12.70;99.90;;;;;;5056236;28;20175;-65
2023/10/22 01:48:01;;;;;;;5.03;3.17;;;12.70;99.90;;;;;;5056020;28;20250;-65
2023/10/22 01:50:27;;;;;;;4.60;3.80;;;12.70;99.90;;;;;;5055777;28;20582;-64
2023/10/22 01:52:52;;;;;;;7.95;4.60;;;12.70;99.90;;;;;;5055982;28;20684;-65
2023/10/22 01:55:18;;;;;;;7.18;4.40;;;12.60;99.90;;;;;;5055774;28;20175;-65
2023/10/22 01:57:44;;;;;;;6.78;4.22;;;12.50;99.90;;;;;;5055944;28;20632;-65
2023/10/22 02:00:11;;;;;;;7.80;4.75;;;12.60;99.90;;;;;;5055659;28;20178;-64
2023/10/22 02:02:38;;;;;;;6.43;4.47;;;12.50;99.90;;;;;;5055981;28;20182;-65
2023/10/22 02:05:04;;;;;;;5.50;4.38;;;12.60;99.90;;;;;;5054437;28;20175;-64
2023/10/22 02:07:29;;;;;;;6.90;4.40;;;12.60;99.90;;;;;;5055836;28;20746;-65
2023/10/22 02:09:56;;;;;;;5.40;4.43;;;12.60;99.90;;;;;;5055544;28;20648;-65
2023/10/22 02:12:29;;;;;;;7.00;4.68;;;12.60;99.90;;;;;;5055674;28;20234;-65
2023/10/22 02:14:55;;;;;;;6.45;4.43;;;12.50;99.90;;;;;;5055505;28;20171;-65
2023/10/22 02:17:20;;;;;;;5.03;4.05;;;12.40;99.90;;;;;;5055565;28;20198;-65
2023/10/22 02:19:46;;;;;;;6.10;3.85;;;12.50;99.90;;;;;;5055216;28;20172;-65
2023/10/22 02:22:12;;;;;;;7.20;3.90;;;12.50;99.90;;;;;;5055321;28;20221;-65
2023/10/22 02:24:39;;;;;;;5.95;3.85;;;12.40;99.90;;;;;;5055427;28;20260;-65
2023/10/22 02:27:05;;;;;;;4.18;3.58;;;12.30;99.90;;;;;;5055279;28;20637;-65
2023/10/22 02:29:31;;;;;;;5.60;4.18;;;12.40;99.90;;;;;;5055461;28;20178;-65
2023/10/22 02:31:56;;;;;;;5.22;3.50;;;12.40;99.90;;;;;;5055187;28;20215;-65
2023/10/22 02:34:22;;;;;;;6.00;3.90;;;12.40;99.90;;;;;;5055091;28;20179;-65
2023/10/22 02:36:47;;;;;;;5.82;3.45;;;12.40;99.90;;;;;;5054874;28;20187;-65
2023/10/22 02:39:13;;;;;;;5.20;3.55;;;12.30;99.90;;;;;;5055251;28;20183;-65
2023/10/22 02:41:39;;;;;;;5.38;3.70;;;12.20;99.90;;;;;;5055164;28;20176;-64
2023/10/22 02:44:04;;;;;;;6.45;3.42;;;12.20;99.90;;;;;;5054894;28;20176;-65
2023/10/22 02:46:30;;;;;;;6.07;3.35;;;12.10;99.90;;;;;;5055133;28;20540;-65
2023/10/22 02:48:58;;;;;;;3.33;2.80;;;12.20;99.90;;;;;;5054853;28;20168;-65
2023/10/22 02:51:23;;;;;;;4.25;2.75;;;12.10;99.90;;;;;;5054650;28;20241;-65
2023/10/22 02:53:49;;;;;;;6.85;3.13;;;12.10;99.90;;;;;;5055208;28;20647;-65
2023/10/22 02:56:15;;;;;;;4.53;3.15;;;11.90;99.90;;;;;;5054919;28;20699;-64
2023/10/22 02:58:41;;;;;;;5.32;2.85;;;12.00;99.90;;;;;;5054828;28;20172;-65
2023/10/22 03:01:11;;;;;;;5.78;3.05;;;12.00;99.90;;;;;;5054689;28;20186;-65
2023/10/22 03:03:41;;;;;;;4.72;2.78;;;12.00;99.90;;;;;;5054575;28;20172;-65
2023/10/22 03:06:08;;;;;;;4.05;2.78;;;11.90;99.90;;;;;;5054393;28;20176;-65
2023/10/22 03:08:39;;;;;;;5.57;2.85;;;12.00;99.90;;;;;;5054577;28;20258;-65
2023/10/22 03:11:05;;;;;;;6.07;2.92;;;11.90;99.90;;;;;;5054627;28;20203;-64
2023/10/22 03:13:32;;;;;;;6.57;2.60;;;11.90;99.90;;;;;;5054455;28;20270;-64
2023/10/22 03:16:06;;;;;;;4.75;2.47;;;11.90;99.90;;;;;;5054439;28;20214;-65
2023/10/22 03:18:32;;;;;;;5.28;2.47;;;11.90;99.90;;;;;;5054321;28;20639;-64
2023/10/22 03:20:57;;;;;;;6.40;3.00;;;11.80;99.90;;;;;;5054207;28;20250;-64
2023/10/22 03:23:23;;;;;;;5.55;2.90;;;11.80;99.90;;;;;;5054289;28;20213;-65
2023/10/22 03:25:50;;;;;;;6.13;2.80;;;11.70;99.90;;;;;;5054205;28;20262;-65
2023/10/22 03:28:16;;;;;;;4.22;2.60;;;11.70;99.90;;;;;;5054250;28;20186;-64
2023/10/22 03:30:41;;;;;;;4.07;2.70;;;11.70;99.90;;;;;;5053958;28;20262;-65
2023/10/22 03:33:07;;;;;;;3.97;2.10;;;11.80;99.90;;;;;;5052706;28;20279;-65
2023/10/22 03:35:35;;;;;;;5.65;2.60;;;11.90;99.90;;;;;;5052871;28;20198;-65
2023/10/22 03:38:02;;;;;;;4.03;2.40;;;11.80;99.90;;;;;;5053992;28;20186;-65
2023/10/22 03:40:28;;;;;;;5.25;2.60;;;11.80;99.90;;;;;;5053923;28;20273;-65
2023/10/22 03:42:53;;;;;;;2.33;2.13;;;11.80;99.90;;;;;;5054015;28;20250;-65
2023/10/22 03:45:19;;;;;;;3.25;2.65;;;11.80;99.90;;;;;;5053821;28;20255;-65
2023/10/22 03:47:44;;;;;;;4.35;2.53;;;11.80;99.90;;;;;;5053889;28;20171;-65
2023/10/22 03:50:10;;;;;;;3.92;2.40;;;11.90;99.90;;;;;;5053160;28;20221;-64
2023/10/22 03:52:36;;;;;;;3.83;2.72;;;11.90;99.90;;;;;;5053811;28;20249;-64
2023/10/22 03:55:01;;;;;;;3.70;2.55;;;11.80;99.90;;;;;;5052540;28;20313;-65
2023/10/22 03:57:27;;;;;;;4.38;2.55;;;11.80;99.90;;;;;;5053949;28;20221;-64
2023/10/22 03:59:52;;;;;;;4.78;2.13;;;11.80;99.90;;;;;;5053692;28;20328;-65
2023/10/22 04:02:18;;;;;;;4.55;2.33;;;11.80;99.90;;;;;;5053633;28;20257;-64
2023/10/22 04:04:44;;;;;;;6.10;2.65;;;11.80;99.90;;;;;;5053244;28;20175;-65
2023/10/22 04:07:11;;;;;;;4.47;2.20;;;11.80;99.90;;;;;;5053421;28;20532;-65
2023/10/22 04:09:37;;;;;;;2.53;1.90;;;11.80;99.90;;;;;;5053473;28;20176;-65
2023/10/22 04:12:03;;;;;;;4.43;2.30;;;11.90;99.90;;;;;;5053200;28;20221;-64
2023/10/22 04:14:28;;;;;;;4.15;2.20;;;11.80;99.90;;;;;;5053392;28;20246;-65
2023/10/22 04:16:54;;;;;;;3.72;2.00;;;11.70;99.90;;;;;;5053353;28;20627;-65
2023/10/22 04:19:20;;;;;;;3.45;1.85;;;11.70;99.90;;;;;;5052238;28;20589;-65
2023/10/22 04:21:45;;;;;;;4.32;1.80;;;11.70;99.90;;;;;;5053013;28;20284;-64
2023/10/22 04:24:11;;;;;;;2.53;1.80;;;11.70;99.90;;;;;;5053409;28;20176;-65
2023/10/22 04:26:37;;;;;;;3.63;1.70;;;11.70;99.90;;;;;;5053269;28;20179;-65
2023/10/22 04:29:02;;;;;;;4.50;1.90;;;11.80;99.90;;;;;;5053181;28;20206;-63
2023/10/22 04:31:28;;;;;;;2.95;1.73;;;11.80;99.90;;;;;;5053196;28;20203;-63
2023/10/22 04:33:54;;;;;;;2.22;1.50;;;11.70;99.90;;;;;;5053351;28;20889;-64
2023/10/22 04:36:20;;;;;;;2.88;1.60;;;11.70;99.90;;;;;;5053339;28;20224;-64
2023/10/22 04:38:48;;;;;;;4.10;1.58;;;11.70;99.90;;;;;;5053245;28;20603;-64
2023/10/22 04:41:14;;;;;;;3.45;1.60;;;11.70;99.90;;;;;;5053184;28;20640;-65
2023/10/22 04:43:39;;;;;;;3.90;1.60;;;11.70;99.90;;;;;;5053010;28;20178;-64
2023/10/22 04:46:05;;;;;;;3.85;1.90;;;11.80;99.90;;;;;;5052975;28;20590;-64
2023/10/22 04:48:31;;;;;;;3.05;1.70;;;11.80;99.90;;;;;;5052883;28;20182;-65
2023/10/22 04:50:59;;;;;;;3.50;1.90;;;11.80;99.90;;;;;;5052855;28;20303;-65
2023/10/22 04:53:25;;;;;;;3.00;2.00;;;11.90;99.90;;;;;;5052972;28;20282;-64
2023/10/22 04:55:59;;;;;;;4.70;1.90;;;11.90;99.90;;;;;;5053002;28;20266;-64
2023/10/22 04:58:25;;;;;;;2.65;1.73;;;12.00;99.90;;;;;;5052999;28;20528;-64
2023/10/22 05:00:50;;;;;;;7.53;2.22;;;11.90;99.90;;;;;;5054289;28;20182;-63
2023/10/22 05:03:16;;;;;;;3.90;1.67;;;12.00;99.90;;;;;;5057066;28;20183;-64
2023/10/22 05:05:42;;;;;;;3.53;1.67;;;12.00;99.90;;;;;;5056890;28;20575;-65
2023/10/22 05:08:09;;;;;;;4.38;1.52;;;12.00;99.90;;;;;;5057217;28;20179;-64
2023/10/22 05:10:40;;;;;;;3.90;1.88;;;12.00;99.90;;;;;;5056922;28;20222;-64
2023/10/22 05:13:08;;;;;;;5.05;1.70;;;12.00;99.90;;;;;;5056769;28;20270;-64
2023/10/22 05:15:34;;;;;;;3.35;1.52;;;12.00;99.90;;;;;;5056471;28;20520;-65
2023/10/22 05:18:08;;;;;;;2.70;1.50;;;12.00;99.90;;;;;;5056718;28;20163;-65
2023/10/22 05:20:34;;;;;;;2.63;1.70;;;12.10;99.90;;;;;;5056822;28;20230;-65
2023/10/22 05:23:03;;;;;;;3.90;2.08;;;12.10;99.90;;;;;;5055212;28;20171;-64
2023/10/22 05:25:29;;;;;;;3.47;1.73;;;12.10;99.90;;;;;;5054810;28;20179;-65
2023/10/22 05:27:54;;;;;;;4.38;2.10;;;12.10;99.90;;;;;;5053676;28;20179;-65
2023/10/22 05:30:20;;;;;;;5.97;2.00;;;12.10;99.90;;;;;;5055512;28;20659;-65
2023/10/22 05:32:45;;;;;;;3.75;1.52;;;12.10;99.90;;;;;;5056265;28;20575;-65
2023/10/22 05:35:11;;;;;;;3.97;1.63;;;12.10;99.90;;;;;;5055794;28;20270;-65
2023/10/22 05:37:37;;;;;;;4.95;1.77;;;12.10;99.90;;;;;;5056269;28;20582;-65
2023/10/22 05:40:04;;;;;;;2.38;1.52;;;12.10;99.90;;;;;;5056200;28;20179;-64
2023/10/22 05:42:30;;;;;;;3.45;1.60;;;12.10;99.90;;;;;;5055645;28;20183;-63
2023/10/22 05:44:56;;;;;;;3.92;1.30;;;12.10;99.90;;;;;;5055629;28;20188;-65
2023/10/22 05:47:22;;;;;;;4.70;1.90;;;12.10;99.90;;;;;;5056142;28;20179;-65
2023/10/22 05:49:47;;;;;;;4.32;1.73;;;12.10;99.90;;;;;;5056156;28;20262;-65
2023/10/22 05:52:13;;;;;;;2.72;1.60;;;12.10;99.90;;;;;;5056016;28;20211;-65
2023/10/22 05:54:39;;;;;;;3.33;1.50;;;12.20;99.90;;;;;;5056020;28;20598;-64
2023/10/22 05:57:05;;;;;;;4.20;1.77;;;12.20;99.90;;;;;;5055757;28;20182;-64
2023/10/22 05:59:32;;;;;;;3.30;2.10;;;12.20;99.90;;;;;;5055753;28;20198;-65
2023/10/22 06:01:58;;;;;;;4.65;1.88;;;12.20;99.90;;;;;;5055812;28;20182;-64
2023/10/22 06:04:23;;;;;;;3.95;1.70;;;12.30;99.90;;;;;;5055890;28;20171;-65
2023/10/22 06:06:49;;;;;;;2.78;1.65;;;12.20;99.90;;;;;;5055122;28;20179;-64
2023/10/22 06:09:15;;;;;;;2.85;1.48;;;12.30;99.90;;;;;;5054853;28;20176;-64
2023/10/22 06:11:40;;;;;;;3.45;2.00;;;12.30;99.90;;;;;;5052846;28;20298;-67
2023/10/22 06:14:06;;;;;;;2.47;1.58;;;12.20;99.90;;;;;;5054555;28;20594;-64
2023/10/22 06:16:32;;;;;;;4.63;1.80;;;12.30;99.90;;;;;;5055504;28;20185;-64
2023/10/22 06:18:58;;;;;;;4.10;2.00;;;12.30;99.90;;;;;;5055336;28;20182;-65
2023/10/22 06:21:23;;;;;;;3.10;1.77;;;12.30;99.90;;;;;;5054952;28;20306;-65
2023/10/22 06:23:50;;;;;;;5.20;2.05;;;12.30;99.90;;;;;;5055072;28;20278;-65
2023/10/22 06:26:15;;;;;;;5.40;2.15;;;12.30;99.90;;;;;;5055077;28;20180;-65
2023/10/22 06:28:42;;;;;;;2.72;1.90;;;12.30;99.90;;;;;;5055068;28;20171;-65
2023/10/22 06:31:09;;;;;;;4.47;2.22;;;12.30;99.90;;;;;;5055073;28;20234;-65
2023/10/22 06:33:35;;;;;;;4.07;2.10;;;12.30;99.90;;;;;;5054909;28;20635;-65
2023/10/22 06:36:16;;;;;;;3.35;1.98;;;12.30;99.90;;;;;;5054378;28;20278;-65
2023/10/22 06:38:46;;;;;;;3.05;2.05;;;12.30;99.90;;;;;;5053506;28;20167;-65
2023/10/22 06:41:22;;;;;;;3.85;2.40;;;12.30;99.90;;;;;;5054015;28;20176;-66
2023/10/22 06:43:48;;;;;;;5.57;2.20;;;12.30;99.90;;;;;;5054865;28;20171;-65
2023/10/22 06:46:14;;;;;;;4.63;2.08;;;12.40;99.90;;;;;;5054818;28;20203;-65
2023/10/22 06:48:42;;;;;;;2.85;2.13;;;12.40;99.90;;;;;;5054738;28;20179;-65
2023/10/22 06:51:12;;;;;;;3.35;2.38;;;12.40;99.90;;;;;;5054579;28;20237;-65
2023/10/22 06:53:39;;;;;;;3.95;2.10;;;12.30;99.90;;;;;;5054607;28;20187;-66
2023/10/22 06:56:05;;;;;;;5.15;2.30;;;12.40;99.90;;;;;;5054130;28;20171;-66
2023/10/22 06:58:32;;;;;;;4.93;2.10;;;12.50;99.90;;;;;;5054828;28;20170;-66
2023/10/22 07:01:09;;;;;;;4.32;2.10;;;12.50;99.90;;;;;;5054441;28;20628;-65
2023/10/22 07:03:42;;;;;;;4.30;2.40;;;12.60;99.90;;;;;;5054569;28;20636;-65
2023/10/22 07:06:08;;;;;;;5.53;2.38;;;12.50;99.90;;;;;;5054448;28;20201;-66
2023/10/22 07:08:33;;;;;;;3.15;2.10;;;12.60;99.90;;;;;;5054744;28;20266;-65
2023/10/22 07:10:59;;;;;;;5.38;2.47;;;12.70;99.90;;;;;;5054488;28;20207;-65
2023/10/22 07:13:26;;;;;;;5.15;2.47;;;12.70;99.90;;;;;;5053276;28;20175;-65
2023/10/22 07:15:52;;;;;;;4.15;2.33;;;12.70;99.90;;;;;;5054373;28;20183;-65
2023/10/22 07:18:19;;;;;;;5.53;2.60;;;12.70;99.90;;;;;;5054357;28;20171;-65
2023/10/22 07:20:44;;;;;;;4.32;2.78;;;12.70;99.90;;;;;;5053860;28;20238;-66
2023/10/22 07:23:10;;;;;;;4.75;2.67;;;12.70;99.90;;;;;;5054006;28;20179;-65
2023/10/22 07:25:37;;;;;;;5.13;2.63;;;12.80;99.90;;;;;;5053420;28;20199;-65
2023/10/22 07:28:05;;;;;;;3.53;2.47;;;12.80;99.90;;;;;;5054331;28;20176;-65
2023/10/22 07:30:32;;;;;;;7.78;2.28;;;12.80;99.90;;;;;;5054072;28;20232;-66
2023/10/22 07:32:58;;;;;;;5.57;2.90;;;12.80;99.90;;;;;;5053870;28;20636;-65
2023/10/22 07:35:24;;;;;;;3.60;2.72;;;12.80;99.90;;;;;;5053861;28;20221;-65
2023/10/22 07:37:50;;;;;;;5.53;2.72;;;12.80;99.90;;;;;;5053923;28;20167;-65
2023/10/22 07:40:19;;;;;;;5.57;2.60;;;12.80;99.90;;;;;;5053983;28;20175;-66
2023/10/22 07:42:45;;;;;;;3.42;2.58;;;12.90;99.90;;;;;;5053945;28;20198;-66
2023/10/22 07:45:11;;;;;;;4.10;2.83;;;12.90;99.90;;;;;;5053687;28;20620;-65
2023/10/22 07:47:37;;;;;;;7.03;3.15;;;13.00;99.90;;;;;;5053711;28;20179;-65
2023/10/22 07:50:07;;;;;;;6.18;2.92;;;13.00;99.90;;;;;;5053609;28;20186;-65
2023/10/22 07:52:35;;;;;;;5.57;2.88;;;13.00;99.90;;;;;;5053772;28;20253;-66
2023/10/22 07:55:01;;;;;;;5.78;2.95;;;13.00;99.90;;;;;;5053614;28;20175;-65
2023/10/22 07:57:27;;;;;;;4.07;2.95;;;13.10;99.90;;;;;;5053553;28;20175;-65
2023/10/22 07:59:56;;;;;;;5.10;3.50;;;13.20;99.90;;;;;;5053562;28;20176;-66
2023/10/22 08:02:23;;;;;;;5.65;3.78;;;13.30;99.90;;;;;;5052142;28;20175;-66
2023/10/22 08:04:49;;;;;;;7.63;3.72;;;13.30;99.90;;;;;;5053393;28;20171;-66
2023/10/22 08:07:18;;;;;;;6.13;3.55;;;13.30;99.90;;;;;;5053385;28;20175;-66
2023/10/22 08:09:45;;;;;;;5.85;3.92;;;13.40;99.90;;;;;;5053530;28;20203;-66
2023/10/22 08:12:10;;;;;;;7.25;4.03;;;13.30;99.90;;;;;;5053373;28;20199;-65
2023/10/22 08:14:36;;;;;;;6.07;3.95;;;13.30;99.90;;;;;;5053372;28;20225;-64
2023/10/22 08:17:02;;;;;;;7.75;4.30;;;13.40;99.90;;;;;;5053277;28;20179;-65
2023/10/22 08:19:27;;;;;;;6.80;4.32;;;13.40;99.90;;;;;;5053479;28;20172;-65
2023/10/22 08:21:53;;;;;;;7.70;4.40;;;13.40;99.90;;;;;;5053332;28;20234;-65
2023/10/22 08:24:18;;;;;;;6.30;4.80;;;13.40;99.90;;;;;;5053334;28;20182;-65
2023/10/22 08:26:44;;;;;;;7.40;5.05;;;13.40;99.90;;;;;;5053542;28;20202;-65
2023/10/22 08:29:10;;;;;;;6.22;5.13;;;13.40;99.90;;;;;;5053029;28;20175;-65
2023/10/22 08:31:35;;;;;;;7.10;4.97;;;13.50;99.90;;;;;;5052855;28;20679;-65
2023/10/22 08:34:02;;;;;;;8.80;4.95;;;13.40;99.90;;;;;;5053361;28;20199;-65
2023/10/22 08:36:28;;;;;;;6.72;4.88;;;13.50;99.90;;;;;;5057962;28;20205;-65
2023/10/22 08:38:53;;;;;;;8.80;4.85;;;13.60;99.90;;;;;;5059858;28;20643;-66
2023/10/22 08:41:25;;;;;;;6.40;4.97;;;13.60;99.90;;;;;;5059805;28;20174;-65
2023/10/22 08:43:51;;;;;;;8.02;5.13;;;13.60;99.90;;;;;;5059672;28;20174;-65
2023/10/22 08:46:17;;;;;;;7.00;5.50;;;13.70;99.90;;;;;;5059644;28;20636;-65
2023/10/22 08:48:44;;;;;;;7.63;5.45;;;13.70;99.90;;;;;;5059875;28;20509;-65
2023/10/22 08:51:10;;;;;;;7.68;5.78;;;13.80;99.90;;;;;;5059769;28;20276;-65
2023/10/22 08:53:36;;;;;;;6.18;5.53;;;13.80;99.90;;;;;;5059708;28;20195;-65
2023/10/22 08:56:03;;;;;;;7.53;6.03;;;13.90;99.90;;;;;;5059606;28;20628;-65
2023/10/22 08:58:29;;;;;;;6.53;5.47;;;13.90;99.90;;;;;;5059664;28;20283;-64
2023/10/22 09:00:55;;;;;;;7.22;5.68;;;13.80;99.90;;;;;;5059534;28;20175;-65
2023/10/22 09:03:21;;;;;;;6.82;5.75;;;13.90;99.90;;;;;;5059722;28;20746;-65
2023/10/22 09:05:48;;;;;;;6.90;5.60;;;13.90;99.90;;;;;;5058480;28;20202;-66
2023/10/22 09:08:14;;;;;;;8.73;5.97;;;14.00;99.90;;;;;;5059571;28;20517;-65
2023/10/22 09:10:41;;;;;;;7.68;5.65;;;14.00;99.90;;;;;;5059384;28;20179;-66
2023/10/22 09:13:06;;;;;;;6.07;5.50;;;13.90;99.90;;;;;;5059412;28;20186;-65
2023/10/22 09:15:37;;;;;;;5.95;5.35;;;13.90;99.90;;;;;;5059726;28;20261;-64
2023/10/22 09:18:03;;;;;;;5.75;4.85;;;13.80;99.90;;;;;;5059588;28;20190;-64
2023/10/22 09:20:34;;;;;;;6.90;5.22;;;13.90;99.90;;;;;;5059426;28;20602;-66
2023/10/22 09:23:17;;;;;;;5.70;4.97;;;14.00;99.90;;;;;;5059747;28;20175;-66
2023/10/22 09:25:44;;;;;;;5.18;4.70;;;14.20;99.90;;;;;;5059270;28;20232;-65
2023/10/22 09:28:29;;;;;;;6.68;4.80;;;14.30;99.90;;;;;;5059597;28;20167;-65
2023/10/22 09:31:00;;;;;;;4.40;4.00;;;14.30;99.90;;;;;;5059327;28;20224;-64
2023/10/22 09:33:36;;;;;;;5.65;4.28;;;14.40;99.90;;;;;;5059277;28;20663;-65
2023/10/22 09:36:07;;;;;;;4.10;3.67;;;14.50;99.90;;;;;;5059231;28;20170;-63
2023/10/22 09:38:48;;;;;;;4.32;3.65;;;14.50;99.90;;;;;;5059207;28;20367;-65
2023/10/22 09:41:29;;;;;;;3.83;3.08;;;14.50;99.90;;;;;;5059596;28;20220;-64
2023/10/22 09:43:56;;;;;;;3.63;3.33;;;14.40;99.90;;;;;;5059423;28;20177;-64
2023/10/22 09:46:27;;;;;;;4.57;3.05;;;14.30;99.90;;;;;;5058918;28;20171;-65
2023/10/22 09:49:00;;;;;;;4.28;2.83;;;14.20;99.90;;;;;;5055595;28;20648;-65
2023/10/22 09:51:34;;;;;;;3.70;2.63;;;14.20;99.90;;;;;;5056116;28;20218;-66
2023/10/22 09:54:05;;;;;;;3.42;2.58;;;14.20;99.90;;;;;;5056321;28;20240;-65
2023/10/22 09:56:32;;;;;;;3.33;2.38;;;14.20;99.90;;;;;;5055959;28;20174;-65
2023/10/22 09:59:07;;;;;;;3.08;2.15;;;14.20;99.90;;;;;;5055747;28;20180;-65
2023/10/22 10:01:34;;;;;;;3.72;2.33;;;14.10;99.90;;;;;;5056015;28;20204;-65
2023/10/22 10:04:05;;;;;;;3.95;2.00;;;14.10;99.90;;;;;;5055866;28;20183;-65
2023/10/22 10:06:31;;;;;;;3.28;2.00;;;14.10;99.90;;;;;;5055884;28;20178;-66
2023/10/22 10:08:59;;;;;;;3.70;2.15;;;14.20;99.90;;;;;;5055945;28;20183;-64
2023/10/22 10:11:27;;;;;;;4.70;1.90;;;14.20;99.90;;;;;;5055511;28;20207;-65
2023/10/22 10:13:52;;;;;;;2.40;2.10;;;14.30;99.90;;;;;;5055780;28;20253;-64
2023/10/22 10:16:23;;;;;;;2.78;2.17;;;14.50;99.90;;;;;;5055686;28;20226;-65
2023/10/22 10:19:02;;;;;;;2.60;2.40;;;14.60;99.90;;;;;;5055462;28;20178;-65
2023/10/22 10:21:34;;;;;;;5.35;2.45;;;14.80;99.90;;;;;;5055199;28;20230;-64
2023/10/22 10:24:15;;;;;;;5.85;2.22;;;14.90;99.90;;;;;;5055313;28;20175;-65
2023/10/22 10:26:41;;;;;;;5.13;2.50;;;15.00;99.90;;;;;;5055512;28;20175;-65
2023/10/22 10:29:06;;;;;;;4.47;2.30;;;15.10;99.90;;;;;;5055338;28;20186;-65
2023/10/22 10:31:32;;;;;;;3.08;2.20;;;15.20;99.90;;;;;;5055238;28;20218;-65
2023/10/22 10:34:02;;;;;;;4.30;2.30;;;15.40;99.90;;;;;;5055166;28;20180;-65
2023/10/22 10:36:31;;;;;;;3.92;2.75;;;15.30;99.90;;;;;;5055095;28;20203;-65
2023/10/22 10:39:34;;;;;;;2.70;2.30;;;15.30;99.90;;;;;;5053774;28;20236;-65
2023/10/22 10:42:00;;;;;;;2.53;2.10;;;15.20;99.90;;;;;;5044850;28;20187;-65
2023/10/22 10:44:29;;;;;;;2.90;2.30;;;15.20;99.90;;;;;;5050739;28;20183;-65
2023/10/22 10:46:55;;;;;;;5.32;2.10;;;15.10;99.90;;;;;;5054725;28;20238;-65
2023/10/22 10:50:02;;;;;;;3.13;2.28;;;14.80;99.90;;;;;;5054766;28;20203;-65
2023/10/22 10:52:48;;;;;;;2.78;2.00;;;14.80;99.90;;;;;;5054942;28;20210;-66
2023/10/22 10:55:19;;;;;;;3.35;2.00;;;14.80;99.90;;;;;;5054146;28;20244;-65
2023/10/22 10:57:50;;;;;;;5.63;2.40;;;14.70;99.90;;;;;;5054847;28;20254;-65
2023/10/22 11:00:20;;;;;;;3.05;2.78;;;14.80;99.90;;;;;;5054260;28;20182;-65
2023/10/22 11:02:53;;;;;;;3.88;3.00;;;14.70;99.90;;;;;;5053786;28;20228;-65
2023/10/22 11:05:40;;;;;;;4.35;3.28;;;14.80;99.90;;;;;;5054211;28;20179;-65
2023/10/22 11:08:11;;;;;;;4.05;3.72;;;14.90;99.90;;;;;;5054473;28;20178;-66
2023/10/22 11:10:36;;;;;;;4.50;3.30;;;15.00;99.90;;;;;;5054660;28;20171;-69
2023/10/22 11:13:04;;;;;;;4.40;3.50;;;15.00;99.90;;;;;;5054792;28;20207;-65
2023/10/22 11:15:32;;;;;;;3.13;2.83;;;15.00;99.90;;;;;;5054475;28;20168;-65
2023/10/22 11:18:06;;;;;;;3.22;2.80;;;15.00;99.90;;;;;;5054386;28;20225;-65
2023/10/22 11:20:32;;;;;;;3.53;2.60;;;14.90;99.90;;;;;;5054263;28;20222;-64
2023/10/22 11:22:58;;;;;;;2.50;2.30;;;14.90;99.90;;;;;;5054416;28;20695;-68
2023/10/22 11:25:25;;;;;;;2.28;2.05;;;15.00;99.90;;;;;;5054285;28;20241;-65
2023/10/22 11:27:51;;;;;;;2.50;2.30;;;14.90;99.90;;;;;;5054245;28;20171;-66
2023/10/22 11:30:34;;;;;;;3.10;2.55;;;14.80;99.90;;;;;;5054134;28;20217;-66
2023/10/22 11:32:59;;;;;;;2.40;2.20;;;14.70;99.90;;;;;;5053928;28;20211;-66
2023/10/22 11:35:30;;;;;;;2.80;2.60;;;14.70;99.90;;;;;;5054173;28;20246;-65
2023/10/22 11:37:57;;;;;;;2.38;1.85;;;14.70;99.90;;;;;;5054044;28;20187;-65
2023/10/22 11:40:33;;;;;;;2.03;1.80;;;14.70;99.90;;;;;;5053813;28;20584;-65
2023/10/22 11:43:02;;;;;;;2.25;1.77;;;14.60;99.90;;;;;;5053842;28;20209;-65
2023/10/22 11:45:31;;;;;;;2.60;1.90;;;14.50;99.90;;;;;;5053630;28;20232;-66
2023/10/22 11:48:11;;;;;;;2.03;1.60;;;14.50;99.90;;;;;;5053918;28;20176;-66
2023/10/22 11:50:37;;;;;;;2.28;1.77;;;14.60;99.90;;;;;;5053802;28;20687;-65
2023/10/22 11:53:02;;;;;;;2.40;1.80;;;14.80;99.90;;;;;;5053672;28;20257;-66
2023/10/22 11:55:28;;;;;;;2.80;1.67;;;15.00;99.90;;;;;;5053736;28;20259;-66
2023/10/22 11:57:54;;;;;;;2.58;2.05;;;15.20;99.90;;;;;;5053619;28;20233;-64
2023/10/22 12:00:20;;;;;;;1.73;1.55;;;15.30;99.90;;;;;;5053770;28;20194;-66
2023/10/22 12:02:46;;;;;;;3.88;1.83;;;15.50;99.90;;;;;;5053709;28;20269;-66
2023/10/22 12:05:13;;;;;;;2.92;1.75;;;15.60;99.90;;;;;;5053764;28;20183;-65
2023/10/22 12:07:39;;;;;;;3.40;1.83;;;15.70;99.90;;;;;;5053481;28;20175;-66
2023/10/22 12:10:06;;;;;;;2.97;1.67;;;15.70;99.90;;;;;;5052872;28;20528;-66
2023/10/22 12:12:32;;;;;;;2.60;1.63;;;15.70;99.90;;;;;;5053294;28;20199;-66
2023/10/22 12:14:58;;;;;;;2.17;1.52;;;15.50;99.90;;;;;;5053303;28;20176;-66
2023/10/22 12:17:24;;;;;;;2.28;1.30;;;15.50;99.90;;;;;;5053474;28;20171;-66
2023/10/22 12:19:49;;;;;;;4.05;1.50;;;15.50;99.90;;;;;;5053054;28;20797;-66
2023/10/22 12:22:15;;;;;;;2.22;1.50;;;15.50;99.90;;;;;;5052065;28;20610;-66
2023/10/22 12:24:41;;;;;;;2.58;1.60;;;15.60;99.90;;;;;;5053356;28;20267;-66
2023/10/22 12:27:06;;;;;;;3.40;2.03;;;15.60;99.90;;;;;;5053104;28;20176;-64
2023/10/22 12:29:32;;;;;;;3.47;1.40;;;15.60;99.90;;;;;;5035505;28;20245;-65
2023/10/22 12:31:58;;;;;;;3.08;1.50;;;15.60;99.90;;;;;;5053269;28;20690;-66
2023/10/22 12:34:25;;;;;;;3.50;1.83;;;15.70;99.90;;;;;;5053067;28;20183;-66
2023/10/22 12:36:50;;;;;;;3.28;1.55;;;15.70;99.90;;;;;;5053180;28;20171;-66
2023/10/22 12:39:16;;;;;;;2.40;1.50;;;15.80;99.90;;;;;;5053126;28;20182;-66
2023/10/22 12:41:42;;;;;;;1.90;1.50;;;15.80;99.90;;;;;;5053269;28;20186;-66
2023/10/22 12:44:07;;;;;;;1.27;1.15;;;15.80;99.90;;;;;;5053304;28;20521;-66
2023/10/22 12:46:33;;;;;;;3.50;1.38;;;15.60;99.90;;;;;;5053173;28;20528;-66
2023/10/22 12:48:59;;;;;;;2.25;1.40;;;15.40;99.90;;;;;;5052991;28;20175;-66